sensor_id;sensor_type;location;lat;lon;timestamp;temperature;humidity
68139;DHT22;54940;50.842;4.410;2023-04-25T00:01:49;10.20;99.90
68139;DHT22;54940;50.842;4.410;2023-04-25T00:04:16;10.20;99.90
68139;DHT22;54940;50.842;4.410;2023-04-25T00:06:42;10.20;99.90
68139;DHT22;54940;50.842;4.410;2023-04-25T00:09:07;10.20;99.90
68139;DHT22;54940;50.842;4.410;2023-04-25T00:11:35;10.10;99.90
68139;DHT22;54940;50.842;4.410;2023-04-25T00:14:02;10.10;99.90
68139;DHT22;54940;50.842;4.410;2023-04-25T00:16:28;10.20;99.90
68139;DHT22;54940;50.842;4.410;2023-04-25T00:18:55;10.00;99.90
68139;DHT22;54940;50.842;4.410;2023-04-25T00:21:22;10.00;99.90
68139;DHT22;54940;50.842;4.410;2023-04-25T00:23:49;10.10;99.90
68139;DHT22;54940;50.842;4.410;2023-04-25T00:26:17;10.10;99.90
68139;DHT22;54940;50.842;4.410;2023-04-25T00:28:43;10.10;99.90
68139;DHT22;54940;50.842;4.410;2023-04-25T00:31:09;10.00;99.90
68139;DHT22;54940;50.842;4.410;2023-04-25T00:33:35;10.00;99.90
68139;DHT22;54940;50.842;4.410;2023-04-25T00:36:01;10.10;99.90
68139;DHT22;54940;50.842;4.410;2023-04-25T00:38:26;10.20;99.90
68139;DHT22;54940;50.842;4.410;2023-04-25T00:40:52;10.20;99.90
68139;DHT22;54940;50.842;4.410;2023-04-25T00:43:18;10.10;99.90
68139;DHT22;54940;50.842;4.410;2023-04-25T00:45:44;10.10;99.90
68139;DHT22;54940;50.842;4.410;2023-04-25T00:48:14;10.20;99.90
68139;DHT22;54940;50.842;4.410;2023-04-25T00:50:39;10.00;99.90
68139;DHT22;54940;50.842;4.410;2023-04-25T00:53:05;10.00;99.90
68139;DHT22;54940;50.842;4.410;2023-04-25T00:55:31;10.00;99.90
68139;DHT22;54940;50.842;4.410;2023-04-25T00:57:58;9.90;99.90
68139;DHT22;54940;50.842;4.410;2023-04-25T01:00:23;9.90;99.90
68139;DHT22;54940;50.842;4.410;2023-04-25T01:02:49;9.90;99.90
68139;DHT22;54940;50.842;4.410;2023-04-25T01:05:15;9.90;99.90
68139;DHT22;54940;50.842;4.410;2023-04-25T01:07:41;9.90;99.90
68139;DHT22;54940;50.842;4.410;2023-04-25T01:10:07;9.80;99.90
68139;DHT22;54940;50.842;4.410;2023-04-25T01:12:35;9.90;99.90
68139;DHT22;54940;50.842;4.410;2023-04-25T01:15:01;9.90;99.90
68139;DHT22;54940;50.842;4.410;2023-04-25T01:17:27;9.80;99.90
68139;DHT22;54940;50.842;4.410;2023-04-25T01:19:53;9.90;99.90
68139;DHT22;54940;50.842;4.410;2023-04-25T01:22:19;9.80;99.90
68139;DHT22;54940;50.842;4.410;2023-04-25T01:24:47;9.80;99.90
68139;DHT22;54940;50.842;4.410;2023-04-25T01:27:13;9.90;99.90
68139;DHT22;54940;50.842;4.410;2023-04-25T01:29:39;9.90;99.90
68139;DHT22;54940;50.842;4.410;2023-04-25T01:32:05;9.80;99.90
68139;DHT22;54940;50.842;4.410;2023-04-25T01:34:31;9.80;99.90
68139;DHT22;54940;50.842;4.410;2023-04-25T01:36:59;9.80;99.90
68139;DHT22;54940;50.842;4.410;2023-04-25T01:39:27;9.80;99.90
68139;DHT22;54940;50.842;4.410;2023-04-25T01:41:55;9.70;99.90
68139;DHT22;54940;50.842;4.410;2023-04-25T01:44:21;9.70;99.90
68139;DHT22;54940;50.842;4.410;2023-04-25T01:46:47;9.60;99.90
68139;DHT22;54940;50.842;4.410;2023-04-25T01:49:12;9.70;99.90
68139;DHT22;54940;50.842;4.410;2023-04-25T01:51:38;9.70;99.90
68139;DHT22;54940;50.842;4.410;2023-04-25T01:54:04;9.60;99.90
68139;DHT22;54940;50.842;4.410;2023-04-25T01:56:36;9.60;99.90
68139;DHT22;54940;50.842;4.410;2023-04-25T01:59:02;9.60;99.90
68139;DHT22;54940;50.842;4.410;2023-04-25T02:01:28;9.40;99.90
68139;DHT22;54940;50.842;4.410;2023-04-25T02:03:53;9.40;99.90
68139;DHT22;54940;50.842;4.410;2023-04-25T02:06:19;9.50;99.90
68139;DHT22;54940;50.842;4.410;2023-04-25T02:08:45;9.50;99.90
68139;DHT22;54940;50.842;4.410;2023-04-25T02:11:11;9.40;99.90
68139;DHT22;54940;50.842;4.410;2023-04-25T02:13:51;9.30;99.90
68139;DHT22;54940;50.842;4.410;2023-04-25T02:16:17;9.40;99.90
68139;DHT22;54940;50.842;4.410;2023-04-25T02:18:43;9.50;99.90
68139;DHT22;54940;50.842;4.410;2023-04-25T02:21:10;9.50;99.90
68139;DHT22;54940;50.842;4.410;2023-04-25T02:23:37;9.50;99.90
68139;DHT22;54940;50.842;4.410;2023-04-25T02:26:03;9.40;99.90
68139;DHT22;54940;50.842;4.410;2023-04-25T02:28:28;9.30;99.90
68139;DHT22;54940;50.842;4.410;2023-04-25T02:30:54;9.30;99.90
68139;DHT22;54940;50.842;4.410;2023-04-25T02:33:20;9.40;99.90
68139;DHT22;54940;50.842;4.410;2023-04-25T02:35:46;9.40;99.90
68139;DHT22;54940;50.842;4.410;2023-04-25T02:38:12;9.50;99.90
68139;DHT22;54940;50.842;4.410;2023-04-25T02:40:37;9.60;99.90
68139;DHT22;54940;50.842;4.410;2023-04-25T02:43:03;9.60;99.90
68139;DHT22;54940;50.842;4.410;2023-04-25T02:45:31;9.70;99.90
68139;DHT22;54940;50.842;4.410;2023-04-25T02:47:57;9.70;99.90
68139;DHT22;54940;50.842;4.410;2023-04-25T02:50:23;9.50;99.90
68139;DHT22;54940;50.842;4.410;2023-04-25T02:52:48;9.50;99.90
68139;DHT22;54940;50.842;4.410;2023-04-25T02:55:18;9.50;99.90
68139;DHT22;54940;50.842;4.410;2023-04-25T02:57:45;9.60;99.90
68139;DHT22;54940;50.842;4.410;2023-04-25T03:00:11;9.60;99.90
68139;DHT22;54940;50.842;4.410;2023-04-25T03:02:37;9.60;99.90
68139;DHT22;54940;50.842;4.410;2023-04-25T03:05:03;9.60;99.90
68139;DHT22;54940;50.842;4.410;2023-04-25T03:07:28;9.60;99.90
68139;DHT22;54940;50.842;4.410;2023-04-25T03:09:56;9.60;99.90
68139;DHT22;54940;50.842;4.410;2023-04-25T03:12:25;9.50;99.90
68139;DHT22;54940;50.842;4.410;2023-04-25T03:14:50;9.50;99.90
68139;DHT22;54940;50.842;4.410;2023-04-25T03:17:16;9.50;99.90
68139;DHT22;54940;50.842;4.410;2023-04-25T03:19:42;9.60;99.90
68139;DHT22;54940;50.842;4.410;2023-04-25T03:22:07;9.50;99.90
68139;DHT22;54940;50.842;4.410;2023-04-25T03:24:33;9.50;99.90
68139;DHT22;54940;50.842;4.410;2023-04-25T03:26:58;9.50;99.90
68139;DHT22;54940;50.842;4.410;2023-04-25T03:29:27;9.40;99.90
68139;DHT22;54940;50.842;4.410;2023-04-25T03:31:55;9.40;99.90
68139;DHT22;54940;50.842;4.410;2023-04-25T03:34:21;9.40;99.90
68139;DHT22;54940;50.842;4.410;2023-04-25T03:36:47;9.40;99.90
68139;DHT22;54940;50.842;4.410;2023-04-25T03:39:13;9.30;99.90
68139;DHT22;54940;50.842;4.410;2023-04-25T03:41:38;9.30;99.90
68139;DHT22;54940;50.842;4.410;2023-04-25T03:44:04;9.20;99.90
68139;DHT22;54940;50.842;4.410;2023-04-25T03:46:32;9.30;99.90
68139;DHT22;54940;50.842;4.410;2023-04-25T03:48:58;9.20;99.90
68139;DHT22;54940;50.842;4.410;2023-04-25T03:51:24;9.10;99.90
68139;DHT22;54940;50.842;4.410;2023-04-25T03:53:51;9.00;99.90
68139;DHT22;54940;50.842;4.410;2023-04-25T03:56:16;8.90;99.90
68139;DHT22;54940;50.842;4.410;2023-04-25T03:58:42;8.90;99.90
68139;DHT22;54940;50.842;4.410;2023-04-25T04:01:10;9.00;99.90
68139;DHT22;54940;50.842;4.410;2023-04-25T04:03:36;9.00;99.90
68139;DHT22;54940;50.842;4.410;2023-04-25T04:06:06;8.90;99.90
68139;DHT22;54940;50.842;4.410;2023-04-25T04:08:33;8.90;99.90
68139;DHT22;54940;50.842;4.410;2023-04-25T04:10:59;8.90;99.90
68139;DHT22;54940;50.842;4.410;2023-04-25T04:13:28;9.00;99.90
68139;DHT22;54940;50.842;4.410;2023-04-25T04:15:54;9.00;99.90
68139;DHT22;54940;50.842;4.410;2023-04-25T04:18:21;9.00;99.90
68139;DHT22;54940;50.842;4.410;2023-04-25T04:20:46;9.10;99.90
68139;DHT22;54940;50.842;4.410;2023-04-25T04:23:12;9.10;99.90
68139;DHT22;54940;50.842;4.410;2023-04-25T04:25:40;9.20;99.90
68139;DHT22;54940;50.842;4.410;2023-04-25T04:28:06;9.10;99.90
68139;DHT22;54940;50.842;4.410;2023-04-25T04:30:34;9.20;99.90
68139;DHT22;54940;50.842;4.410;2023-04-25T04:33:03;9.20;99.90
68139;DHT22;54940;50.842;4.410;2023-04-25T04:35:28;9.20;99.90
68139;DHT22;54940;50.842;4.410;2023-04-25T04:37:54;9.20;99.90
68139;DHT22;54940;50.842;4.410;2023-04-25T04:40:20;9.20;99.90
68139;DHT22;54940;50.842;4.410;2023-04-25T04:42:47;9.20;99.90
68139;DHT22;54940;50.842;4.410;2023-04-25T04:45:13;9.30;99.90
68139;DHT22;54940;50.842;4.410;2023-04-25T04:47:39;9.20;99.90
68139;DHT22;54940;50.842;4.410;2023-04-25T04:50:12;9.20;99.90
68139;DHT22;54940;50.842;4.410;2023-04-25T04:52:38;9.20;99.90
68139;DHT22;54940;50.842;4.410;2023-04-25T04:55:04;9.20;99.90
68139;DHT22;54940;50.842;4.410;2023-04-25T04:57:34;9.20;99.90
68139;DHT22;54940;50.842;4.410;2023-04-25T05:00:02;9.20;99.90
68139;DHT22;54940;50.842;4.410;2023-04-25T05:02:30;9.20;99.90
68139;DHT22;54940;50.842;4.410;2023-04-25T05:04:56;9.30;99.90
68139;DHT22;54940;50.842;4.410;2023-04-25T05:07:22;9.30;99.90
68139;DHT22;54940;50.842;4.410;2023-04-25T05:09:49;9.30;99.90
68139;DHT22;54940;50.842;4.410;2023-04-25T05:12:15;9.20;99.90
68139;DHT22;54940;50.842;4.410;2023-04-25T05:14:40;9.20;99.90
68139;DHT22;54940;50.842;4.410;2023-04-25T05:17:06;9.00;99.90
68139;DHT22;54940;50.842;4.410;2023-04-25T05:19:34;8.90;99.90
68139;DHT22;54940;50.842;4.410;2023-04-25T05:22:00;8.90;99.90
68139;DHT22;54940;50.842;4.410;2023-04-25T05:24:28;8.70;99.90
68139;DHT22;54940;50.842;4.410;2023-04-25T05:26:53;8.60;99.90
68139;DHT22;54940;50.842;4.410;2023-04-25T05:29:19;8.60;99.90
68139;DHT22;54940;50.842;4.410;2023-04-25T05:31:45;8.50;99.90
68139;DHT22;54940;50.842;4.410;2023-04-25T05:34:10;8.50;99.90
68139;DHT22;54940;50.842;4.410;2023-04-25T05:36:36;8.50;99.90
68139;DHT22;54940;50.842;4.410;2023-04-25T05:39:02;8.50;99.90
68139;DHT22;54940;50.842;4.410;2023-04-25T05:41:29;8.60;99.90
68139;DHT22;54940;50.842;4.410;2023-04-25T05:43:55;8.70;99.90
68139;DHT22;54940;50.842;4.410;2023-04-25T05:46:23;8.80;99.90
68139;DHT22;54940;50.842;4.410;2023-04-25T05:48:49;8.80;99.90
68139;DHT22;54940;50.842;4.410;2023-04-25T05:51:15;8.80;99.90
68139;DHT22;54940;50.842;4.410;2023-04-25T05:53:41;8.90;99.90
68139;DHT22;54940;50.842;4.410;2023-04-25T05:56:07;9.00;99.90
68139;DHT22;54940;50.842;4.410;2023-04-25T05:58:33;8.90;99.90
68139;DHT22;54940;50.842;4.410;2023-04-25T06:00:58;9.00;99.90
68139;DHT22;54940;50.842;4.410;2023-04-25T06:03:24;9.00;99.90
68139;DHT22;54940;50.842;4.410;2023-04-25T06:05:50;9.00;99.90
68139;DHT22;54940;50.842;4.410;2023-04-25T06:08:16;9.00;99.90
68139;DHT22;54940;50.842;4.410;2023-04-25T06:10:41;9.10;99.90
68139;DHT22;54940;50.842;4.410;2023-04-25T06:13:07;9.10;99.90
68139;DHT22;54940;50.842;4.410;2023-04-25T06:15:33;9.00;99.90
68139;DHT22;54940;50.842;4.410;2023-04-25T06:17:58;9.00;99.90
68139;DHT22;54940;50.842;4.410;2023-04-25T06:20:24;9.00;99.90
68139;DHT22;54940;50.842;4.410;2023-04-25T06:22:51;9.00;99.90
68139;DHT22;54940;50.842;4.410;2023-04-25T06:25:21;9.10;99.90
68139;DHT22;54940;50.842;4.410;2023-04-25T06:27:47;9.10;99.90
68139;DHT22;54940;50.842;4.410;2023-04-25T06:30:13;9.10;99.90
68139;DHT22;54940;50.842;4.410;2023-04-25T06:32:39;9.00;99.90
68139;DHT22;54940;50.842;4.410;2023-04-25T06:35:05;9.00;99.90
68139;DHT22;54940;50.842;4.410;2023-04-25T06:37:31;9.10;99.90
68139;DHT22;54940;50.842;4.410;2023-04-25T06:39:56;9.10;99.90
68139;DHT22;54940;50.842;4.410;2023-04-25T06:42:22;9.10;99.90
68139;DHT22;54940;50.842;4.410;2023-04-25T06:44:48;9.10;99.90
68139;DHT22;54940;50.842;4.410;2023-04-25T06:47:14;9.20;99.90
68139;DHT22;54940;50.842;4.410;2023-04-25T06:49:40;9.20;99.90
68139;DHT22;54940;50.842;4.410;2023-04-25T06:52:06;9.30;99.90
68139;DHT22;54940;50.842;4.410;2023-04-25T06:54:32;9.30;99.90
68139;DHT22;54940;50.842;4.410;2023-04-25T06:56:58;9.30;99.90
68139;DHT22;54940;50.842;4.410;2023-04-25T06:59:24;9.40;99.90
68139;DHT22;54940;50.842;4.410;2023-04-25T07:01:49;9.30;99.90
68139;DHT22;54940;50.842;4.410;2023-04-25T07:04:17;9.20;99.90
68139;DHT22;54940;50.842;4.410;2023-04-25T07:06:45;9.20;99.90
68139;DHT22;54940;50.842;4.410;2023-04-25T07:09:12;9.30;99.90
68139;DHT22;54940;50.842;4.410;2023-04-25T07:11:38;9.20;99.90
68139;DHT22;54940;50.842;4.410;2023-04-25T07:14:04;9.10;99.90
68139;DHT22;54940;50.842;4.410;2023-04-25T07:16:32;9.20;99.90
68139;DHT22;54940;50.842;4.410;2023-04-25T07:18:57;9.10;99.90
68139;DHT22;54940;50.842;4.410;2023-04-25T07:21:23;9.10;99.90
68139;DHT22;54940;50.842;4.410;2023-04-25T07:23:48;9.10;99.90
68139;DHT22;54940;50.842;4.410;2023-04-25T07:26:17;9.10;99.90
68139;DHT22;54940;50.842;4.410;2023-04-25T07:28:42;9.20;99.90
68139;DHT22;54940;50.842;4.410;2023-04-25T07:31:08;9.20;99.90
68139;DHT22;54940;50.842;4.410;2023-04-25T07:33:37;9.30;99.90
68139;DHT22;54940;50.842;4.410;2023-04-25T07:36:02;9.40;99.90
68139;DHT22;54940;50.842;4.410;2023-04-25T07:38:28;9.40;99.90
68139;DHT22;54940;50.842;4.410;2023-04-25T07:40:54;9.40;99.90
68139;DHT22;54940;50.842;4.410;2023-04-25T07:43:20;9.40;99.90
68139;DHT22;54940;50.842;4.410;2023-04-25T07:45:46;9.50;99.90
68139;DHT22;54940;50.842;4.410;2023-04-25T07:48:17;9.60;99.90
68139;DHT22;54940;50.842;4.410;2023-04-25T07:50:46;9.70;99.90
68139;DHT22;54940;50.842;4.410;2023-04-25T07:53:11;9.80;99.90
68139;DHT22;54940;50.842;4.410;2023-04-25T07:55:37;10.00;99.90
68139;DHT22;54940;50.842;4.410;2023-04-25T07:58:06;10.10;99.90
68139;DHT22;54940;50.842;4.410;2023-04-25T08:00:32;10.10;99.90
68139;DHT22;54940;50.842;4.410;2023-04-25T08:02:57;10.00;99.90
68139;DHT22;54940;50.842;4.410;2023-04-25T08:05:23;9.90;99.90
68139;DHT22;54940;50.842;4.410;2023-04-25T08:07:51;10.00;99.90
68139;DHT22;54940;50.842;4.410;2023-04-25T08:10:19;9.80;99.90
68139;DHT22;54940;50.842;4.410;2023-04-25T08:12:45;9.90;99.90
68139;DHT22;54940;50.842;4.410;2023-04-25T08:15:11;9.90;99.90
68139;DHT22;54940;50.842;4.410;2023-04-25T08:17:39;10.00;99.90
68139;DHT22;54940;50.842;4.410;2023-04-25T08:20:06;10.20;99.90
68139;DHT22;54940;50.842;4.410;2023-04-25T08:22:32;10.30;99.90
68139;DHT22;54940;50.842;4.410;2023-04-25T08:24:57;10.30;99.90
68139;DHT22;54940;50.842;4.410;2023-04-25T08:27:24;10.40;99.90
68139;DHT22;54940;50.842;4.410;2023-04-25T08:29:49;10.40;99.90
68139;DHT22;54940;50.842;4.410;2023-04-25T08:32:16;10.60;99.90
68139;DHT22;54940;50.842;4.410;2023-04-25T08:34:42;10.70;99.90
68139;DHT22;54940;50.842;4.410;2023-04-25T08:37:09;10.80;99.90
68139;DHT22;54940;50.842;4.410;2023-04-25T08:39:38;10.90;99.90
68139;DHT22;54940;50.842;4.410;2023-04-25T08:42:06;10.80;99.90
68139;DHT22;54940;50.842;4.410;2023-04-25T08:44:37;11.00;99.90
68139;DHT22;54940;50.842;4.410;2023-04-25T08:47:04;10.90;99.90
68139;DHT22;54940;50.842;4.410;2023-04-25T08:49:33;11.10;99.90
68139;DHT22;54940;50.842;4.410;2023-04-25T08:52:00;11.50;99.90
68139;DHT22;54940;50.842;4.410;2023-04-25T08:54:27;11.80;99.90
68139;DHT22;54940;50.842;4.410;2023-04-25T08:56:54;11.80;99.90
68139;DHT22;54940;50.842;4.410;2023-04-25T08:59:22;11.70;99.90
68139;DHT22;54940;50.842;4.410;2023-04-25T09:01:49;11.70;99.90
68139;DHT22;54940;50.842;4.410;2023-04-25T09:04:15;11.50;99.90
68139;DHT22;54940;50.842;4.410;2023-04-25T09:06:41;11.60;99.90
68139;DHT22;54940;50.842;4.410;2023-04-25T09:09:08;11.50;99.90
68139;DHT22;54940;50.842;4.410;2023-04-25T09:11:35;11.50;99.90
68139;DHT22;54940;50.842;4.410;2023-04-25T09:14:18;11.30;99.90
68139;DHT22;54940;50.842;4.410;2023-04-25T09:19:27;11.20;99.90
68139;DHT22;54940;50.842;4.410;2023-04-25T09:21:58;11.40;99.90
68139;DHT22;54940;50.842;4.410;2023-04-25T09:24:36;11.30;99.90
68139;DHT22;54940;50.842;4.410;2023-04-25T09:27:06;11.30;99.90
68139;DHT22;54940;50.842;4.410;2023-04-25T09:29:37;11.20;99.90
68139;DHT22;54940;50.842;4.410;2023-04-25T09:32:24;11.00;99.90
68139;DHT22;54940;50.842;4.410;2023-04-25T09:34:56;10.90;99.90
68139;DHT22;54940;50.842;4.410;2023-04-25T09:37:29;10.90;99.90
68139;DHT22;54940;50.842;4.410;2023-04-25T09:39:57;10.90;99.90
68139;DHT22;54940;50.842;4.410;2023-04-25T09:42:28;10.90;99.90
68139;DHT22;54940;50.842;4.410;2023-04-25T09:44:58;10.80;99.90
68139;DHT22;54940;50.842;4.410;2023-04-25T09:47:25;11.10;99.90
68139;DHT22;54940;50.842;4.410;2023-04-25T09:49:52;11.40;99.90
68139;DHT22;54940;50.842;4.410;2023-04-25T09:52:22;11.60;99.90
68139;DHT22;54940;50.842;4.410;2023-04-25T09:54:51;11.90;99.90
68139;DHT22;54940;50.842;4.410;2023-04-25T09:57:18;11.80;99.90
68139;DHT22;54940;50.842;4.410;2023-04-25T09:59:52;11.90;99.90
68139;DHT22;54940;50.842;4.410;2023-04-25T10:02:19;12.20;99.90
68139;DHT22;54940;50.842;4.410;2023-04-25T10:04:50;12.40;99.90
68139;DHT22;54940;50.842;4.410;2023-04-25T10:07:21;12.70;99.90
68139;DHT22;54940;50.842;4.410;2023-04-25T10:09:49;12.60;99.90
68139;DHT22;54940;50.842;4.410;2023-04-25T10:12:16;12.50;99.90
68139;DHT22;54940;50.842;4.410;2023-04-25T10:14:42;12.40;99.90
68139;DHT22;54940;50.842;4.410;2023-04-25T10:17:10;12.40;99.90
68139;DHT22;54940;50.842;4.410;2023-04-25T10:19:39;12.20;99.90
68139;DHT22;54940;50.842;4.410;2023-04-25T10:22:13;12.30;99.90
68139;DHT22;54940;50.842;4.410;2023-04-25T10:24:40;12.80;99.90
68139;DHT22;54940;50.842;4.410;2023-04-25T10:27:09;13.00;99.90
68139;DHT22;54940;50.842;4.410;2023-04-25T10:29:36;13.30;99.90
68139;DHT22;54940;50.842;4.410;2023-04-25T10:32:02;13.50;99.90
68139;DHT22;54940;50.842;4.410;2023-04-25T10:34:44;13.60;99.90
68139;DHT22;54940;50.842;4.410;2023-04-25T10:37:15;13.80;99.90
68139;DHT22;54940;50.842;4.410;2023-04-25T10:39:41;13.70;99.90
68139;DHT22;54940;50.842;4.410;2023-04-25T10:42:07;13.90;99.90
68139;DHT22;54940;50.842;4.410;2023-04-25T10:44:34;14.10;99.90
68139;DHT22;54940;50.842;4.410;2023-04-25T10:47:01;14.10;99.90
68139;DHT22;54940;50.842;4.410;2023-04-25T10:49:35;13.80;99.90
68139;DHT22;54940;50.842;4.410;2023-04-25T10:54:55;13.50;99.90
68139;DHT22;54940;50.842;4.410;2023-04-25T10:57:46;13.40;99.90
68139;DHT22;54940;50.842;4.410;2023-04-25T11:00:20;13.60;99.90
68139;DHT22;54940;50.842;4.410;2023-04-25T11:02:58;13.40;99.90
68139;DHT22;54940;50.842;4.410;2023-04-25T11:05:35;13.30;99.90
68139;DHT22;54940;50.842;4.410;2023-04-25T11:08:01;13.20;99.90
68139;DHT22;54940;50.842;4.410;2023-04-25T11:10:30;13.10;99.90
68139;DHT22;54940;50.842;4.410;2023-04-25T11:12:56;12.90;99.90
68139;DHT22;54940;50.842;4.410;2023-04-25T11:15:23;12.80;99.90
68139;DHT22;54940;50.842;4.410;2023-04-25T11:17:51;12.50;99.90
68139;DHT22;54940;50.842;4.410;2023-04-25T11:20:17;12.30;99.90
68139;DHT22;54940;50.842;4.410;2023-04-25T11:22:44;12.00;99.90
68139;DHT22;54940;50.842;4.410;2023-04-25T11:25:11;12.00;99.90
68139;DHT22;54940;50.842;4.410;2023-04-25T11:27:58;11.90;99.90
68139;DHT22;54940;50.842;4.410;2023-04-25T11:30:25;12.00;99.90
68139;DHT22;54940;50.842;4.410;2023-04-25T11:32:51;12.00;99.90
68139;DHT22;54940;50.842;4.410;2023-04-25T11:35:18;12.30;99.90
68139;DHT22;54940;50.842;4.410;2023-04-25T11:37:45;12.50;99.90
68139;DHT22;54940;50.842;4.410;2023-04-25T11:40:11;12.90;99.90
68139;DHT22;54940;50.842;4.410;2023-04-25T11:42:44;13.00;99.90
68139;DHT22;54940;50.842;4.410;2023-04-25T11:45:11;13.00;99.90
68139;DHT22;54940;50.842;4.410;2023-04-25T11:47:39;13.20;99.90
68139;DHT22;54940;50.842;4.410;2023-04-25T11:50:06;13.40;99.90
68139;DHT22;54940;50.842;4.410;2023-04-25T11:52:40;13.60;99.90
68139;DHT22;54940;50.842;4.410;2023-04-25T11:55:14;13.90;99.90
68139;DHT22;54940;50.842;4.410;2023-04-25T11:57:41;14.20;99.90
68139;DHT22;54940;50.842;4.410;2023-04-25T12:02:37;14.80;99.90
68139;DHT22;54940;50.842;4.410;2023-04-25T12:05:06;15.40;99.90
68139;DHT22;54940;50.842;4.410;2023-04-25T12:07:34;15.60;99.90
68139;DHT22;54940;50.842;4.410;2023-04-25T12:10:12;15.70;99.90
68139;DHT22;54940;50.842;4.410;2023-04-25T12:12:41;16.50;99.90
68139;DHT22;54940;50.842;4.410;2023-04-25T12:15:14;16.50;99.90
68139;DHT22;54940;50.842;4.410;2023-04-25T12:17:46;16.40;99.90
68139;DHT22;54940;50.842;4.410;2023-04-25T12:20:20;16.20;99.90
68139;DHT22;54940;50.842;4.410;2023-04-25T12:22:47;16.10;99.90
68139;DHT22;54940;50.842;4.410;2023-04-25T12:33:29;16.10;99.90
68139;DHT22;54940;50.842;4.410;2023-04-25T12:35:56;15.80;99.90
68139;DHT22;54940;50.842;4.410;2023-04-25T12:38:27;15.70;99.90
68139;DHT22;54940;50.842;4.410;2023-04-25T12:40:54;15.70;99.90
68139;DHT22;54940;50.842;4.410;2023-04-25T12:43:20;15.70;99.90
68139;DHT22;54940;50.842;4.410;2023-04-25T12:45:53;15.90;99.90
68139;DHT22;54940;50.842;4.410;2023-04-25T12:48:19;15.80;99.90
68139;DHT22;54940;50.842;4.410;2023-04-25T12:50:48;16.60;99.90
68139;DHT22;54940;50.842;4.410;2023-04-25T12:53:21;17.10;99.90
68139;DHT22;54940;50.842;4.410;2023-04-25T12:55:48;17.80;97.30
68139;DHT22;54940;50.842;4.410;2023-04-25T12:58:17;17.80;95.70
68139;DHT22;54940;50.842;4.410;2023-04-25T13:00:44;18.20;97.50
68139;DHT22;54940;50.842;4.410;2023-04-25T13:03:10;17.90;97.50
68139;DHT22;54940;50.842;4.410;2023-04-25T13:05:39;17.70;96.10
68139;DHT22;54940;50.842;4.410;2023-04-25T13:08:05;17.60;96.50
68139;DHT22;54940;50.842;4.410;2023-04-25T13:10:31;17.70;95.20
68139;DHT22;54940;50.842;4.410;2023-04-25T13:12:59;17.10;96.90
68139;DHT22;54940;50.842;4.410;2023-04-25T13:15:26;16.70;99.40
68139;DHT22;54940;50.842;4.410;2023-04-25T13:17:51;16.80;97.50
68139;DHT22;54940;50.842;4.410;2023-04-25T13:20:17;17.20;98.30
68139;DHT22;54940;50.842;4.410;2023-04-25T13:22:47;17.40;95.70
68139;DHT22;54940;50.842;4.410;2023-04-25T13:25:13;17.70;97.30
68139;DHT22;54940;50.842;4.410;2023-04-25T13:27:39;17.80;96.70
68139;DHT22;54940;50.842;4.410;2023-04-25T13:30:06;18.30;95.00
68139;DHT22;54940;50.842;4.410;2023-04-25T13:32:36;18.70;94.30
68139;DHT22;54940;50.842;4.410;2023-04-25T13:35:07;19.10;94.10
68139;DHT22;54940;50.842;4.410;2023-04-25T13:37:34;19.40;91.60
68139;DHT22;54940;50.842;4.410;2023-04-25T13:40:04;19.50;90.30
68139;DHT22;54940;50.842;4.410;2023-04-25T13:42:34;19.40;91.10
68139;DHT22;54940;50.842;4.410;2023-04-25T13:45:00;19.30;91.30
68139;DHT22;54940;50.842;4.410;2023-04-25T13:47:26;19.20;86.80
68139;DHT22;54940;50.842;4.410;2023-04-25T13:49:52;18.80;85.30
68139;DHT22;54940;50.842;4.410;2023-04-25T13:52:18;18.50;85.30
68139;DHT22;54940;50.842;4.410;2023-04-25T13:54:43;18.70;89.20
68139;DHT22;54940;50.842;4.410;2023-04-25T13:57:12;18.60;84.10
68139;DHT22;54940;50.842;4.410;2023-04-25T13:59:38;18.60;82.80
68139;DHT22;54940;50.842;4.410;2023-04-25T14:02:04;18.00;89.20
68139;DHT22;54940;50.842;4.410;2023-04-25T14:04:30;17.60;91.90
68139;DHT22;54940;50.842;4.410;2023-04-25T14:06:55;16.70;91.90
68139;DHT22;54940;50.842;4.410;2023-04-25T14:09:21;16.40;93.90
68139;DHT22;54940;50.842;4.410;2023-04-25T14:11:54;16.20;95.40
68139;DHT22;54940;50.842;4.410;2023-04-25T14:14:21;16.10;94.90
68139;DHT22;54940;50.842;4.410;2023-04-25T14:16:48;15.80;95.30
68139;DHT22;54940;50.842;4.410;2023-04-25T14:19:14;15.90;95.80
68139;DHT22;54940;50.842;4.410;2023-04-25T14:21:40;16.00;94.70
68139;DHT22;54940;50.842;4.410;2023-04-25T14:24:08;16.20;94.00
68139;DHT22;54940;50.842;4.410;2023-04-25T14:26:34;16.00;93.80
68139;DHT22;54940;50.842;4.410;2023-04-25T14:29:01;16.00;93.00
68139;DHT22;54940;50.842;4.410;2023-04-25T14:31:27;16.40;92.00
68139;DHT22;54940;50.842;4.410;2023-04-25T14:33:53;16.70;92.60
68139;DHT22;54940;50.842;4.410;2023-04-25T14:36:19;17.10;92.60
68139;DHT22;54940;50.842;4.410;2023-04-25T14:38:44;17.40;91.70
68139;DHT22;54940;50.842;4.410;2023-04-25T14:41:11;17.80;90.70
68139;DHT22;54940;50.842;4.410;2023-04-25T14:43:39;18.00;92.60
68139;DHT22;54940;50.842;4.410;2023-04-25T14:46:08;18.20;89.10
68139;DHT22;54940;50.842;4.410;2023-04-25T14:48:34;18.10;87.40
68139;DHT22;54940;50.842;4.410;2023-04-25T14:51:00;18.10;88.70
68139;DHT22;54940;50.842;4.410;2023-04-25T14:53:27;18.40;88.90
68139;DHT22;54940;50.842;4.410;2023-04-25T14:55:53;18.20;90.00
68139;DHT22;54940;50.842;4.410;2023-04-25T14:58:19;18.40;90.10
68139;DHT22;54940;50.842;4.410;2023-04-25T15:00:45;18.20;87.80
68139;DHT22;54940;50.842;4.410;2023-04-25T15:03:11;18.40;85.60
68139;DHT22;54940;50.842;4.410;2023-04-25T15:05:38;18.40;88.80
68139;DHT22;54940;50.842;4.410;2023-04-25T15:08:04;18.70;87.80
68139;DHT22;54940;50.842;4.410;2023-04-25T15:10:30;18.70;87.60
68139;DHT22;54940;50.842;4.410;2023-04-25T15:12:56;18.40;84.80
68139;DHT22;54940;50.842;4.410;2023-04-25T15:15:22;18.20;85.40
68139;DHT22;54940;50.842;4.410;2023-04-25T15:17:48;18.00;84.90
68139;DHT22;54940;50.842;4.410;2023-04-25T15:20:14;17.80;84.40
68139;DHT22;54940;50.842;4.410;2023-04-25T15:22:41;18.00;87.80
68139;DHT22;54940;50.842;4.410;2023-04-25T15:25:08;18.40;85.20
68139;DHT22;54940;50.842;4.410;2023-04-25T15:27:38;18.10;84.50
68139;DHT22;54940;50.842;4.410;2023-04-25T15:30:08;17.80;87.00
68139;DHT22;54940;50.842;4.410;2023-04-25T15:32:34;18.00;86.80
68139;DHT22;54940;50.842;4.410;2023-04-25T15:35:06;18.00;84.90
68139;DHT22;54940;50.842;4.410;2023-04-25T15:37:35;17.50;87.10
68139;DHT22;54940;50.842;4.410;2023-04-25T15:40:06;17.00;85.70
68139;DHT22;54940;50.842;4.410;2023-04-25T15:42:40;16.30;86.20
68139;DHT22;54940;50.842;4.410;2023-04-25T15:45:08;15.70;87.00
68139;DHT22;54940;50.842;4.410;2023-04-25T15:47:34;15.30;87.70
68139;DHT22;54940;50.842;4.410;2023-04-25T15:50:01;15.10;90.30
68139;DHT22;54940;50.842;4.410;2023-04-25T15:52:27;15.20;91.40
68139;DHT22;54940;50.842;4.410;2023-04-25T15:54:53;15.20;91.20